Tohshi — 3EJO5 — position and weather

sailwx.info

Track history (hours):
 
Tides and Currents Weather Stations Pressure Air Temp Water Temp Dewpoint Dewpoint Depression Visibility Wind Speed Wind Dir Waves Ship Positions

Tohshi

Last reported at 2014-Aug-26 06:30 UTC. Time now 2014-Aug-30 02:27 UTC.
Position N 34°40' E 139°32'.

Length 333 m; beam 60 m.

Type: Tanker. MMSI: 372582000.

Date/timePositionNaut miles runAvg speedWind from/ knotsBaromVisibWave heightAir tempDewpointWater temp
2014-Aug-26 06:30N 34°40' E 139°32'1111.1
2014-Aug-26 05:33N 34°50' E 139°37'1111.2
2014-Aug-26 04:33N 35°00' E 139°41'1111.5
2014-Aug-26 03:33N 35°11' E 139°46'1211.8
2014-Aug-26 02:34N 35°23' E 139°42'1312.7
2014-Aug-26 01:33N 35°31' E 139°54'1 1.3
2014-Aug-26 00:30N 35°31' E 139°56'0 0.0
2014-Aug-25 23:33N 35°31' E 139°56'0 0.0
2014-Aug-25 22:33N 35°31' E 139°56'0 0.0
2014-Aug-25 21:33N 35°31' E 139°56'0 0.0
2014-Aug-25 20:33N 35°31' E 139°56'0 0.0
2014-Aug-24 05:09N 35°31' E 139°56'0 0.0
2014-Aug-24 04:33N 35°31' E 139°56'2 1.6
2014-Aug-24 03:33N 35°30' E 139°55'0 0.3
2014-Aug-24 02:31N 35°30' E 139°54'0 0.1
2014-Aug-24 01:31N 35°30' E 139°54'0 0.1
2014-Aug-24 00:31N 35°30' E 139°54'0 0.0
2014-Aug-23 23:31N 35°30' E 139°54'0 0.0
2014-Aug-23 22:31N 35°30' E 139°54'0 0.0
2014-Aug-23 21:28N 35°30' E 139°54'0 0.1
2014-Aug-23 20:25N 35°30' E 139°54'0 0.1
2014-Aug-23 19:31N 35°30' E 139°54'2 0.1
2014-Aug-23 03:33N 35°31' E 139°56'3 3.4
2014-Aug-23 02:33N 35°29' E 139°53'9 9.0
2014-Aug-23 01:33N 35°22' E 139°45'9 9.4
2014-Aug-23 00:33N 35°13' E 139°47'8 7.8
2014-Aug-22 23:33N 35°05' E 139°45'1010.1
2014-Aug-22 22:33N 34°56' E 139°41'1010.1
2014-Aug-22 21:33N 34°46' E 139°44'1210.4
2014-Aug-22 20:26N 34°37' E 139°53'13 3.3
2014-Aug-22 16:25N 34°27' E 139°41'7 7.9
2014-Aug-22 15:33N 34°30' E 139°33'  
Track history (hours):
 
Tides and Currents Weather Stations Pressure Air Temp Water Temp Dewpoint Dewpoint Depression Visibility Wind Speed Wind Dir Waves Ship Positions

Tohshi

Last reported at 2014-Aug-26 06:30 UTC. Time now 2014-Aug-30 02:27 UTC.
Position N 34°40' E 139°32'.

Length 333 m; beam 60 m.

Type: Tanker. MMSI: 372582000.

Date/timePositionNaut miles runAvg speedWind from/ knotsBaromVisibWave heightAir tempDewpointWater temp
2014-Aug-26 06:30N 34°40' E 139°32'1111.1
2014-Aug-26 05:33N 34°50' E 139°37'1111.2
2014-Aug-26 04:33N 35°00' E 139°41'1111.5
2014-Aug-26 03:33N 35°11' E 139°46'1211.8
2014-Aug-26 02:34N 35°23' E 139°42'1312.7
2014-Aug-26 01:33N 35°31' E 139°54'1 1.3
2014-Aug-26 00:30N 35°31' E 139°56'0 0.0
2014-Aug-25 23:33N 35°31' E 139°56'0 0.0
2014-Aug-25 22:33N 35°31' E 139°56'0 0.0
2014-Aug-25 21:33N 35°31' E 139°56'0 0.0
2014-Aug-25 20:33N 35°31' E 139°56'0 0.0
2014-Aug-24 05:09N 35°31' E 139°56'0 0.0
2014-Aug-24 04:33N 35°31' E 139°56'2 1.6
2014-Aug-24 03:33N 35°30' E 139°55'0 0.3
2014-Aug-24 02:31N 35°30' E 139°54'0 0.1
2014-Aug-24 01:31N 35°30' E 139°54'0 0.1
2014-Aug-24 00:31N 35°30' E 139°54'0 0.0
2014-Aug-23 23:31N 35°30' E 139°54'0 0.0
2014-Aug-23 22:31N 35°30' E 139°54'0 0.0
2014-Aug-23 21:28N 35°30' E 139°54'0 0.1
2014-Aug-23 20:25N 35°30' E 139°54'0 0.1
2014-Aug-23 19:31N 35°30' E 139°54'2 0.1
2014-Aug-23 03:33N 35°31' E 139°56'3 3.4
2014-Aug-23 02:33N 35°29' E 139°53'9 9.0
2014-Aug-23 01:33N 35°22' E 139°45'9 9.4
2014-Aug-23 00:33N 35°13' E 139°47'8 7.8
2014-Aug-22 23:33N 35°05' E 139°45'1010.1
2014-Aug-22 22:33N 34°56' E 139°41'1010.1
2014-Aug-22 21:33N 34°46' E 139°44'1210.4
2014-Aug-22 20:26N 34°37' E 139°53'13 3.3
2014-Aug-22 16:25N 34°27' E 139°41'7 7.9
2014-Aug-22 15:33N 34°30' E 139°33'  

Dump ship's entire track history